createdAt,value
2023-03-11T00:00:19.946Z,79.77
2023-03-11T00:02:48.714Z,79.94
2023-03-11T00:05:18.265Z,78.89
2023-03-11T00:07:46.100Z,79.93
2023-03-11T00:10:17.792Z,80.43
2023-03-11T00:12:45.569Z,81.05
2023-03-11T00:15:14.702Z,79.96
2023-03-11T00:17:42.889Z,79.80
2023-03-11T00:20:20.293Z,80.13
2023-03-11T00:22:48.498Z,80.44
2023-03-11T00:25:19.093Z,80.58
2023-03-11T00:27:47.051Z,80.91
2023-03-11T00:30:16.257Z,81.04
2023-03-11T00:32:44.668Z,81.28
2023-03-11T00:35:14.408Z,80.89
2023-03-11T00:37:42.319Z,81.88
2023-03-11T00:40:14.142Z,81.94
2023-03-11T00:42:43.314Z,81.48
2023-03-11T00:45:11.753Z,82.29
2023-03-11T00:47:39.546Z,81.83
2023-03-11T00:50:09.662Z,82.05
2023-03-11T00:52:38.808Z,82.89
2023-03-11T00:55:07.104Z,82.65
2023-03-11T00:57:34.886Z,83.41
2023-03-11T01:00:04.550Z,82.53
2023-03-11T01:02:32.342Z,83.27
2023-03-11T01:05:00.087Z,83.19
2023-03-11T01:07:27.819Z,83.25
2023-03-11T01:09:55.604Z,83.10
2023-03-11T01:12:23.335Z,82.83
2023-03-11T01:14:51.164Z,83.43
2023-03-11T01:17:22.119Z,82.89
2023-03-11T01:19:49.928Z,83.13
2023-03-11T01:22:18.134Z,83.06
2023-03-11T01:24:46.042Z,82.58
2023-03-11T01:27:13.901Z,83.00
2023-03-11T01:29:41.720Z,83.47
2023-03-11T01:32:09.521Z,83.29
2023-03-11T01:34:38.653Z,82.73
2023-03-11T01:37:06.449Z,83.18
2023-03-11T01:39:34.226Z,82.85
2023-03-11T01:42:01.997Z,83.41
2023-03-11T01:44:29.728Z,81.67
2023-03-11T01:47:35.222Z,81.78
2023-03-11T01:50:06.628Z,82.32
2023-03-11T01:52:34.707Z,82.92
2023-03-11T01:55:02.621Z,81.97
2023-03-11T01:57:31.064Z,82.31
2023-03-11T02:00:01.617Z,82.63
2023-03-11T02:02:35.482Z,82.66
2023-03-11T02:05:05.697Z,82.54
2023-03-11T02:07:34.038Z,81.78
2023-03-11T02:10:02.171Z,82.10
2023-03-11T02:12:35.155Z,82.16
2023-03-11T02:15:03.863Z,82.16
2023-03-11T02:17:31.800Z,81.82
2023-03-11T02:20:13.410Z,82.51
2023-03-11T02:22:42.766Z,82.56
2023-03-11T02:25:19.634Z,81.83
2023-03-11T02:27:52.117Z,81.43
2023-03-11T02:30:21.700Z,81.73
2023-03-11T02:32:50.571Z,82.10
2023-03-11T02:35:19.009Z,81.84
2023-03-11T02:37:48.070Z,81.53
2023-03-11T02:40:36.331Z,82.05
2023-03-11T02:43:09.246Z,81.84
2023-03-11T02:45:39.969Z,81.36
2023-03-11T02:48:11.190Z,81.52
2023-03-11T02:50:39.526Z,81.93
2023-03-11T02:53:07.744Z,82.26
2023-03-11T02:55:35.606Z,82.35
2023-03-11T02:58:04.925Z,82.57
2023-03-11T03:00:33.912Z,82.20
2023-03-11T03:03:01.837Z,83.09
2023-03-11T03:05:29.747Z,82.35
2023-03-11T03:07:57.664Z,82.71
2023-03-11T03:10:25.751Z,82.90
2023-03-11T03:12:53.570Z,83.29
2023-03-11T03:15:22.716Z,82.83
2023-03-11T03:17:51.595Z,83.36
2023-03-11T03:20:20.772Z,83.41
2023-03-11T03:22:48.695Z,83.01
2023-03-11T03:25:16.649Z,83.60
2023-03-11T03:27:44.513Z,82.74
2023-03-11T03:30:13.474Z,82.93
2023-03-11T03:32:42.796Z,82.91
2023-03-11T03:35:11.222Z,83.53
2023-03-11T03:37:39.205Z,83.44
2023-03-11T03:40:10.011Z,82.66
2023-03-11T03:42:39.387Z,82.29
2023-03-11T03:45:09.496Z,82.74
2023-03-11T03:47:37.607Z,82.95
2023-03-11T03:50:09.145Z,82.20
2023-03-11T03:52:37.338Z,83.03
2023-03-11T03:55:06.719Z,82.85
2023-03-11T03:57:34.796Z,83.07
2023-03-11T04:00:03.802Z,82.44
2023-03-11T04:02:32.689Z,82.64
2023-03-11T04:05:00.410Z,82.53
2023-03-11T04:07:29.531Z,82.97
2023-03-11T04:09:57.372Z,82.94
2023-03-11T04:12:25.313Z,82.43
2023-03-11T04:14:53.571Z,83.01
2023-03-11T04:17:21.353Z,82.90
2023-03-11T04:19:49.241Z,82.53
2023-03-11T04:22:16.987Z,82.38
2023-03-11T04:24:46.347Z,82.71
2023-03-11T04:27:16.425Z,82.67
2023-03-11T04:29:44.318Z,83.11
2023-03-11T04:32:12.125Z,82.62
2023-03-11T04:34:40.733Z,82.84
2023-03-11T04:37:08.570Z,83.17
2023-03-11T04:39:36.278Z,83.54
2023-03-11T04:42:05.725Z,83.52
2023-03-11T04:44:36.012Z,83.68
2023-03-11T04:47:03.693Z,83.45
2023-03-11T04:49:31.438Z,83.20
2023-03-11T04:51:59.197Z,83.39
2023-03-11T04:54:27.012Z,83.95
2023-03-11T04:56:55.118Z,83.74
2023-03-11T04:59:24.276Z,83.70
2023-03-11T05:01:52.098Z,84.11
2023-03-11T05:04:19.866Z,84.94
2023-03-11T05:06:50.859Z,84.57
2023-03-11T05:09:18.726Z,85.31
2023-03-11T05:11:46.485Z,84.66
2023-03-11T05:14:14.227Z,84.84
2023-03-11T05:16:43.383Z,84.89
2023-03-11T05:19:25.009Z,85.15
2023-03-11T05:21:52.795Z,85.19
2023-03-11T05:24:21.004Z,86.00
2023-03-11T05:26:48.817Z,85.74
2023-03-11T05:29:16.583Z,85.85
2023-03-11T05:31:45.691Z,85.58
2023-03-11T05:34:13.635Z,86.04
2023-03-11T05:36:41.440Z,86.28
2023-03-11T05:39:09.240Z,86.61
2023-03-11T05:41:37.146Z,87.03
2023-03-11T05:44:05.492Z,87.11
2023-03-11T05:46:33.347Z,87.08
2023-03-11T05:49:02.481Z,87.37
2023-03-11T05:51:30.627Z,87.00
2023-03-11T05:53:58.758Z,87.06
2023-03-11T05:56:26.523Z,87.22
2023-03-11T05:58:54.249Z,87.54
2023-03-11T06:01:22.006Z,87.41
2023-03-11T06:03:49.841Z,87.46
2023-03-11T06:06:19.057Z,87.69
2023-03-11T06:08:49.878Z,87.83
2023-03-11T06:11:18.411Z,88.01
2023-03-11T06:13:46.163Z,87.85
2023-03-11T06:16:14.282Z,88.21
2023-03-11T06:18:42.280Z,88.24
2023-03-11T06:21:17.084Z,88.08
2023-03-11T06:23:46.586Z,88.32
2023-03-11T06:26:16.744Z,88.78
2023-03-11T06:28:45.435Z,88.47
2023-03-11T06:31:16.987Z,88.51
2023-03-11T06:33:44.998Z,88.60
2023-03-11T06:36:15.136Z,88.76
2023-03-11T06:38:43.228Z,88.43
2023-03-11T06:41:12.385Z,88.71
2023-03-11T06:43:40.319Z,88.95
2023-03-11T06:46:12.817Z,89.25
2023-03-11T06:48:40.835Z,89.50
2023-03-11T06:51:08.849Z,89.71
2023-03-11T06:53:36.727Z,89.37
2023-03-11T06:56:07.442Z,89.80
2023-03-11T06:58:38.186Z,90.27
2023-03-11T07:01:08.410Z,89.84
2023-03-11T07:03:39.065Z,90.55
2023-03-11T07:06:07.481Z,90.77
2023-03-11T07:08:35.223Z,90.69
2023-03-11T07:11:04.963Z,90.52
2023-03-11T07:13:33.255Z,90.91
2023-03-11T07:16:03.713Z,91.19
2023-03-11T07:18:31.539Z,90.71
2023-03-11T07:20:59.363Z,91.05
2023-03-11T07:23:27.215Z,91.29
2023-03-11T07:25:55.577Z,91.32
2023-03-11T07:28:23.507Z,90.75
2023-03-11T07:30:51.382Z,91.53
2023-03-11T07:33:21.048Z,91.28
2023-03-11T07:35:49.425Z,91.87
2023-03-11T07:38:17.987Z,91.43
2023-03-11T07:40:45.878Z,91.77
2023-03-11T07:43:13.661Z,91.26
2023-03-11T07:45:41.497Z,91.17
2023-03-11T07:48:09.215Z,91.31
2023-03-11T07:50:38.370Z,91.75
2023-03-11T07:53:06.092Z,91.63
2023-03-11T07:55:34.494Z,91.66
2023-03-11T07:58:02.434Z,92.68
2023-03-11T08:00:30.286Z,92.17
2023-03-11T08:02:58.022Z,91.71
2023-03-11T08:05:25.915Z,91.28
2023-03-11T08:07:55.026Z,91.23
2023-03-11T08:10:22.758Z,91.68
2023-03-11T08:12:50.500Z,90.54
2023-03-11T08:15:18.230Z,91.16
2023-03-11T08:17:45.985Z,91.23
2023-03-11T08:20:14.307Z,91.10
2023-03-11T08:22:55.607Z,90.81
2023-03-11T08:25:26.940Z,89.38
2023-03-11T08:27:54.657Z,89.12
2023-03-11T08:30:22.925Z,87.80
2023-03-11T08:32:51.075Z,87.27
2023-03-11T08:35:19.011Z,85.43
2023-03-11T08:37:46.815Z,84.62
2023-03-11T08:40:14.934Z,83.67
2023-03-11T08:42:44.031Z,83.47
2023-03-11T08:45:12.783Z,82.49
2023-03-11T08:47:41.282Z,81.78
2023-03-11T08:50:13.403Z,80.61
2023-03-11T08:52:41.143Z,79.68
2023-03-11T08:55:11.528Z,78.78
2023-03-11T08:57:39.281Z,77.65
2023-03-11T09:00:13.000Z,76.63
2023-03-11T09:02:41.650Z,75.36
2023-03-11T09:05:10.277Z,74.87
2023-03-11T09:07:38.044Z,74.13
2023-03-11T09:10:06.828Z,73.57
2023-03-11T09:12:34.638Z,72.85
2023-03-11T09:15:02.387Z,71.85
2023-03-11T09:17:31.544Z,71.56
2023-03-11T09:19:59.553Z,69.83
2023-03-11T09:22:27.338Z,70.10
2023-03-11T09:24:55.077Z,69.22
2023-03-11T09:27:22.843Z,69.24
2023-03-11T09:29:50.819Z,68.53
2023-03-11T09:32:18.633Z,68.43
2023-03-11T09:34:47.799Z,67.72
2023-03-11T09:37:15.800Z,67.94
2023-03-11T09:39:44.695Z,67.82
2023-03-11T09:42:21.362Z,67.13
2023-03-11T09:44:59.931Z,67.44
2023-03-11T09:47:45.148Z,67.56
2023-03-11T09:50:29.538Z,67.83
2023-03-11T09:53:10.180Z,67.23
2023-03-11T09:55:43.397Z,66.95
2023-03-11T09:58:18.898Z,66.17
2023-03-11T10:00:47.338Z,66.03
2023-03-11T10:03:30.466Z,65.63
2023-03-11T10:06:07.372Z,65.22
2023-03-11T10:08:43.784Z,65.64
2023-03-11T10:11:28.531Z,65.49
2023-03-11T10:14:07.699Z,65.29
2023-03-11T10:16:42.847Z,60.32
2023-03-11T10:19:22.831Z,61.37
2023-03-11T10:22:02.238Z,63.83
2023-03-11T10:24:52.874Z,63.00
2023-03-11T10:27:24.433Z,64.30
2023-03-11T10:30:01.728Z,64.11
2023-03-11T10:32:39.332Z,63.53
2023-03-11T10:35:17.730Z,63.54
2023-03-11T10:37:52.658Z,63.26
2023-03-11T10:40:29.779Z,62.94
2023-03-11T10:43:00.926Z,62.75
2023-03-11T10:45:41.388Z,62.63
2023-03-11T10:48:11.265Z,62.60
2023-03-11T10:50:47.469Z,62.60
2023-03-11T10:53:19.796Z,62.49
2023-03-11T10:55:49.722Z,62.01
2023-03-11T10:58:20.529Z,61.77
2023-03-11T11:01:01.042Z,61.55
2023-03-11T11:03:29.480Z,62.00
2023-03-11T11:06:03.203Z,62.78
2023-03-11T11:08:32.932Z,62.71
2023-03-11T11:11:01.880Z,63.14
2023-03-11T11:13:32.405Z,61.40
2023-03-11T11:16:02.509Z,59.84
2023-03-11T11:18:34.434Z,60.29
2023-03-11T11:21:05.584Z,60.14
2023-03-11T11:23:39.902Z,59.28
2023-03-11T11:26:15.657Z,58.86
2023-03-11T11:28:43.444Z,58.22
2023-03-11T11:31:23.277Z,58.40
2023-03-11T11:33:53.250Z,57.79
2023-03-11T11:36:25.478Z,57.66
2023-03-11T11:38:55.652Z,57.45
2023-03-11T11:41:25.886Z,56.33
2023-03-11T11:43:56.005Z,55.95
2023-03-11T11:46:30.306Z,55.27
2023-03-11T11:49:06.922Z,53.13
2023-03-11T11:51:40.283Z,53.12
2023-03-11T11:54:18.135Z,53.38
2023-03-11T11:56:46.590Z,53.17
2023-03-11T11:59:18.839Z,52.09
2023-03-11T12:01:59.332Z,51.71
2023-03-11T12:04:39.423Z,51.63
2023-03-11T12:07:23.032Z,49.81
2023-03-11T12:10:12.997Z,49.97
2023-03-11T12:12:55.402Z,50.00
2023-03-11T12:15:28.213Z,48.92
2023-03-11T12:18:02.357Z,47.16
2023-03-11T12:20:35.838Z,48.26
2023-03-11T12:23:18.398Z,47.43
2023-03-11T12:26:03.362Z,47.70
2023-03-11T12:28:40.556Z,47.39
2023-03-11T12:31:11.070Z,46.73
2023-03-11T12:33:41.243Z,46.26
2023-03-11T12:36:24.558Z,42.01
2023-03-11T12:38:54.655Z,40.32
2023-03-11T12:42:18.904Z,43.41
2023-03-11T12:44:48.472Z,42.30
2023-03-11T12:47:27.284Z,44.76
2023-03-11T12:49:57.402Z,45.81
2023-03-11T12:52:53.598Z,42.69
2023-03-11T12:55:37.178Z,45.35
2023-03-11T12:58:30.175Z,46.18
2023-03-11T13:01:08.770Z,44.16
2023-03-11T13:03:48.701Z,45.95
2023-03-11T13:06:27.910Z,44.69
2023-03-11T13:08:58.238Z,44.43
2023-03-11T13:11:39.138Z,44.54
2023-03-11T13:14:35.150Z,44.99
2023-03-11T13:17:26.962Z,43.84
2023-03-11T13:19:56.633Z,43.30
2023-03-11T13:23:14.945Z,44.96
2023-03-11T13:25:43.823Z,45.37
2023-03-11T13:28:37.191Z,44.50
2023-03-11T13:31:17.915Z,44.89
2023-03-11T13:33:53.039Z,44.23
2023-03-11T13:36:41.339Z,43.97
2023-03-11T13:39:27.806Z,43.95
2023-03-11T13:41:56.188Z,42.58
2023-03-11T13:44:30.420Z,43.29
2023-03-11T13:47:06.862Z,44.57
2023-03-11T13:49:41.219Z,41.01
2023-03-11T13:52:13.830Z,43.55
2023-03-11T13:54:48.484Z,43.56
2023-03-11T13:57:27.865Z,38.85
2023-03-11T13:59:57.442Z,42.80
2023-03-11T14:02:28.401Z,43.31
2023-03-11T14:05:03.654Z,43.84
2023-03-11T14:07:34.394Z,43.78
2023-03-11T14:10:23.955Z,42.75
2023-03-11T14:12:52.158Z,41.63
2023-03-11T14:15:24.301Z,38.64
2023-03-11T14:17:54.785Z,41.49
2023-03-11T14:20:26.255Z,40.74
2023-03-11T14:22:55.973Z,41.24
2023-03-11T14:25:26.368Z,40.98
2023-03-11T14:27:56.696Z,40.86
2023-03-11T14:30:27.644Z,41.06
2023-03-11T14:33:02.525Z,39.57
2023-03-11T14:35:33.906Z,41.00
2023-03-11T14:38:02.326Z,41.20
2023-03-11T14:40:32.431Z,40.89
2023-03-11T14:43:03.109Z,41.20
2023-03-11T14:45:33.615Z,41.58
2023-03-11T14:48:08.274Z,41.88
2023-03-11T14:50:36.655Z,36.57
2023-03-11T14:53:10.025Z,39.36
2023-03-11T14:55:41.128Z,40.46
2023-03-11T14:58:16.915Z,38.57
2023-03-11T15:00:50.794Z,40.15
2023-03-11T15:03:23.615Z,40.22
2023-03-11T15:05:54.883Z,40.21
2023-03-11T15:08:24.634Z,39.84
2023-03-11T15:11:06.536Z,39.28
2023-03-11T15:13:34.898Z,39.20
2023-03-11T15:16:04.635Z,39.10
2023-03-11T15:18:37.531Z,38.96
2023-03-11T15:21:12.655Z,37.52
2023-03-11T15:23:40.940Z,39.04
2023-03-11T15:26:20.392Z,38.88
2023-03-11T15:28:54.842Z,39.41
2023-03-11T15:31:31.576Z,38.98
2023-03-11T15:34:27.433Z,39.09
2023-03-11T15:37:17.864Z,39.39
2023-03-11T15:39:47.760Z,40.10
2023-03-11T15:42:20.050Z,39.41
2023-03-11T15:45:04.432Z,39.34
2023-03-11T15:47:32.597Z,39.68
2023-03-11T15:50:23.509Z,39.83
2023-03-11T15:52:52.779Z,39.68
2023-03-11T15:55:20.676Z,40.39
2023-03-11T15:57:49.700Z,40.09
2023-03-11T16:00:21.044Z,40.54
2023-03-11T16:02:49.895Z,40.04
2023-03-11T16:05:21.314Z,40.46
2023-03-11T16:07:49.180Z,40.69
2023-03-11T16:10:19.259Z,41.67
2023-03-11T16:12:47.147Z,41.64
2023-03-11T16:15:24.888Z,42.07
2023-03-11T16:17:53.879Z,41.89
2023-03-11T16:20:24.545Z,42.25
2023-03-11T16:22:54.675Z,43.41
2023-03-11T16:25:26.393Z,43.70
2023-03-11T16:27:56.058Z,43.39
2023-03-11T16:30:25.219Z,43.88
2023-03-11T16:32:53.087Z,44.82
2023-03-11T16:35:21.193Z,44.39
2023-03-11T16:37:51.016Z,44.24
2023-03-11T16:40:21.684Z,44.79
2023-03-11T16:42:49.733Z,45.42
2023-03-11T16:45:19.328Z,45.37
2023-03-11T16:47:47.184Z,44.96
2023-03-11T16:50:15.099Z,44.98
2023-03-11T16:52:42.996Z,44.94
2023-03-11T16:55:12.313Z,45.09
2023-03-11T16:57:40.183Z,45.60
2023-03-11T17:00:10.970Z,46.04
2023-03-11T17:02:39.640Z,45.59
2023-03-11T17:05:09.185Z,46.00
2023-03-11T17:07:39.590Z,45.32
2023-03-11T17:10:08.421Z,45.66
2023-03-11T17:12:38.069Z,46.38
2023-03-11T17:15:07.851Z,46.06
2023-03-11T17:17:35.639Z,45.73
2023-03-11T17:20:04.103Z,46.61
2023-03-11T17:22:32.523Z,46.60
2023-03-11T17:25:00.274Z,46.18
2023-03-11T17:27:32.183Z,46.58
2023-03-11T17:30:01.874Z,46.13
2023-03-11T17:32:29.685Z,47.00
2023-03-11T17:34:57.590Z,47.31
2023-03-11T17:37:25.761Z,47.45
2023-03-11T17:39:54.009Z,47.47
2023-03-11T17:42:21.816Z,47.69
2023-03-11T17:44:52.073Z,48.36
2023-03-11T17:47:21.931Z,48.38
2023-03-11T17:49:50.316Z,48.13
2023-03-11T17:52:18.098Z,48.12
2023-03-11T17:54:46.304Z,49.30
2023-03-11T17:57:14.173Z,48.98
2023-03-11T17:59:41.892Z,49.22
2023-03-11T18:02:14.231Z,49.63
2023-03-11T18:04:45.979Z,49.60
2023-03-11T18:07:14.191Z,50.39
2023-03-11T18:09:41.947Z,49.83
2023-03-11T18:12:10.013Z,51.17
2023-03-11T18:14:37.819Z,51.03
2023-03-11T18:17:05.943Z,51.76
2023-03-11T18:19:33.777Z,52.01
2023-03-11T18:22:02.915Z,52.70
2023-03-11T18:24:30.708Z,53.16
2023-03-11T18:26:58.481Z,53.55
2023-03-11T18:29:26.212Z,53.28
2023-03-11T18:31:53.965Z,53.99
2023-03-11T18:34:22.263Z,54.90
2023-03-11T18:36:50.199Z,55.28
2023-03-11T18:39:20.129Z,55.09
2023-03-11T18:41:47.939Z,55.37
2023-03-11T18:44:16.171Z,55.11
2023-03-11T18:46:46.970Z,55.32
2023-03-11T18:49:14.976Z,56.49
2023-03-11T18:51:42.744Z,56.78
2023-03-11T18:54:11.570Z,56.64
2023-03-11T18:56:40.736Z,57.34
2023-03-11T18:59:10.600Z,57.80
2023-03-11T19:01:38.560Z,58.11
2023-03-11T19:04:09.994Z,58.88
2023-03-11T19:06:38.202Z,58.83
2023-03-11T19:09:06.821Z,59.41
2023-03-11T19:11:34.686Z,59.45
2023-03-11T19:14:08.971Z,59.80
2023-03-11T19:16:36.747Z,60.66
2023-03-11T19:19:04.554Z,60.60
2023-03-11T19:21:32.377Z,60.73
2023-03-11T19:24:00.381Z,60.62
2023-03-11T19:26:43.702Z,60.75
2023-03-11T19:29:14.784Z,61.14
2023-03-11T19:31:43.469Z,61.70
2023-03-11T19:34:11.423Z,61.71
2023-03-11T19:36:39.506Z,62.25
2023-03-11T19:39:07.852Z,61.84
2023-03-11T19:41:35.673Z,62.83
2023-03-11T19:44:04.310Z,62.60
2023-03-11T19:46:34.761Z,63.34
2023-03-11T19:49:11.615Z,63.56
2023-03-11T19:51:49.493Z,63.72
2023-03-11T19:54:18.609Z,63.42
2023-03-11T19:56:46.690Z,63.41
2023-03-11T19:59:14.694Z,63.69
2023-03-11T20:01:43.854Z,63.82
2023-03-11T20:04:11.821Z,63.72
2023-03-11T20:06:39.701Z,63.80
2023-03-11T20:09:07.893Z,63.95
2023-03-11T20:11:39.193Z,64.01
2023-03-11T20:14:07.360Z,64.23
2023-03-11T20:16:36.396Z,64.26
2023-03-11T20:19:05.660Z,64.06
2023-03-11T20:21:33.485Z,64.26
2023-03-11T20:24:01.260Z,64.27
2023-03-11T20:26:29.055Z,64.48
2023-03-11T20:28:57.239Z,64.65
2023-03-11T20:31:26.823Z,64.89
2023-03-11T20:33:56.131Z,65.20
2023-03-11T20:36:27.138Z,65.28
2023-03-11T20:38:56.475Z,65.49
2023-03-11T20:41:25.973Z,65.65
2023-03-11T20:43:55.056Z,66.04
2023-03-11T20:46:23.562Z,65.93
2023-03-11T20:48:51.956Z,66.52
2023-03-11T20:51:21.380Z,66.64
2023-03-11T20:53:50.589Z,66.52
2023-03-11T20:56:20.778Z,66.70
2023-03-11T20:58:50.935Z,66.56
2023-03-11T21:01:21.278Z,66.52
2023-03-11T21:03:49.843Z,66.70
2023-03-11T21:06:20.129Z,67.16
2023-03-11T21:08:48.536Z,67.31
2023-03-11T21:11:18.880Z,67.25
2023-03-11T21:13:46.764Z,67.23
2023-03-11T21:16:14.932Z,67.48
2023-03-11T21:18:43.767Z,67.05
2023-03-11T21:21:12.617Z,67.27
2023-03-11T21:23:41.172Z,67.79
2023-03-11T21:26:09.548Z,67.30
2023-03-11T21:28:40.127Z,67.71
2023-03-11T21:31:10.897Z,67.83
2023-03-11T21:33:40.039Z,68.03
2023-03-11T21:36:09.092Z,67.87
2023-03-11T21:38:37.888Z,68.51
2023-03-11T21:41:09.021Z,68.55
2023-03-11T21:43:39.313Z,68.75
2023-03-11T21:46:08.131Z,68.56
2023-03-11T21:48:36.117Z,68.83
2023-03-11T21:51:04.264Z,68.77
2023-03-11T21:53:32.739Z,68.53
2023-03-11T21:56:01.388Z,68.10
2023-03-11T21:58:31.106Z,67.89
2023-03-11T22:01:00.942Z,67.65
2023-03-11T22:03:29.165Z,67.50
2023-03-11T22:05:58.792Z,67.95
2023-03-11T22:08:27.071Z,66.96
2023-03-11T22:10:56.692Z,67.03
2023-03-11T22:13:25.322Z,66.55
2023-03-11T22:15:53.628Z,66.45
2023-03-11T22:18:23.000Z,66.65
2023-03-11T22:20:50.851Z,66.38
2023-03-11T22:23:18.715Z,66.70
2023-03-11T22:25:46.513Z,66.09
2023-03-11T22:28:14.771Z,66.53
2023-03-11T22:30:42.791Z,66.28
2023-03-11T22:33:10.550Z,65.98
2023-03-11T22:35:39.752Z,66.33
2023-03-11T22:38:07.698Z,66.43
2023-03-11T22:40:35.919Z,65.70
2023-03-11T22:43:03.665Z,65.88
2023-03-11T22:45:31.434Z,66.34
2023-03-11T22:47:59.213Z,65.98
2023-03-11T22:50:27.031Z,66.14
2023-03-11T22:52:56.247Z,66.67
2023-03-11T22:55:24.023Z,66.75
2023-03-11T22:57:51.862Z,66.45
2023-03-11T23:00:22.520Z,66.93
2023-03-11T23:02:54.031Z,66.52
2023-03-11T23:05:22.768Z,67.07
2023-03-11T23:07:51.308Z,67.19
2023-03-11T23:10:21.603Z,67.00
2023-03-11T23:12:50.101Z,67.31
2023-03-11T23:15:19.607Z,67.14
2023-03-11T23:17:47.669Z,67.25
2023-03-11T23:20:16.832Z,66.83
2023-03-11T23:22:45.257Z,66.79
2023-03-11T23:25:15.802Z,67.50
2023-03-11T23:27:46.566Z,67.40
2023-03-11T23:30:16.484Z,67.20
2023-03-11T23:32:45.107Z,67.53
2023-03-11T23:35:13.781Z,67.49
2023-03-11T23:37:41.819Z,67.67
2023-03-11T23:40:11.445Z,67.38
2023-03-11T23:42:39.315Z,67.82
2023-03-11T23:45:10.068Z,67.54
2023-03-11T23:47:37.979Z,67.80
2023-03-11T23:50:06.721Z,67.79
2023-03-11T23:52:34.861Z,68.30
2023-03-11T23:55:02.990Z,68.27
2023-03-11T23:57:30.838Z,68.32
2023-03-11T23:59:58.855Z,68.85
